Time;durP1;ratioP1;P1;durP2;ratioP2;P2;SDS_P1;SDS_P2;PMS_P1;PMS_P2;Temp;Humidity;BMP_temperature;BMP_pressure;BME280_temperature;BME280_humidity;BME280_pressure;Samples;Min_cycle;Max_cycle;Signal;HPM_P1;HPM_P2
2021/03/21 00:00:27;;;;;;;5.03;3.30;;;4.00;67.30;4.10;100108.00;;;;342956;28;88725;-89
2021/03/21 00:00:43;;;;;;;5.18;3.55;;;3.90;67.40;4.20;100105.00;;;;342643;28;88029;-89
2021/03/21 00:00:55;;;;;;;6.18;3.97;;;3.90;67.50;4.20;100104.00;;;;341423;28;90663;-89
2021/03/21 00:01:07;;;;;;;5.53;4.05;;;3.90;67.60;4.20;100099.00;;;;341408;28;87926;-89
2021/03/21 00:01:18;;;;;;;5.13;3.67;;;3.90;67.50;4.30;100110.00;;;;342207;28;90895;-89
2021/03/21 00:01:30;;;;;;;4.90;3.80;;;3.90;67.70;4.30;100103.00;;;;342735;28;88067;-90
2021/03/21 00:01:42;;;;;;;4.28;3.28;;;3.90;67.70;4.30;100101.00;;;;342896;28;91826;-89
2021/03/21 00:01:54;;;;;;;4.18;3.63;;;3.90;67.80;4.30;100094.00;;;;342406;28;87324;-89
2021/03/21 00:02:06;;;;;;;4.25;3.55;;;3.90;68.00;4.20;100104.00;;;;341603;28;90560;-88
2021/03/21 00:02:17;;;;;;;4.00;3.38;;;3.80;68.00;4.20;100106.00;;;;340071;28;88652;-89
2021/03/21 00:02:29;;;;;;;4.32;3.72;;;3.90;68.20;4.30;100107.00;;;;344105;28;91841;-88
2021/03/21 00:02:40;;;;;;;4.65;4.00;;;3.90;68.20;4.30;100107.00;;;;344131;28;87041;-89
2021/03/21 00:02:52;;;;;;;4.55;3.88;;;3.90;68.00;4.30;100109.00;;;;342730;28;90850;-89
2021/03/21 00:03:04;;;;;;;5.68;3.83;;;3.90;67.80;4.30;100111.00;;;;341391;28;87356;-88
2021/03/21 00:03:16;;;;;;;5.47;3.78;;;3.90;68.00;4.30;100104.00;;;;340695;28;91459;-89
2021/03/21 00:03:28;;;;;;;4.63;3.45;;;3.90;67.90;4.30;100110.00;;;;343228;28;86921;-89
2021/03/21 00:03:40;;;;;;;4.63;3.40;;;3.90;67.90;4.30;100101.00;;;;340074;28;90838;-90
2021/03/21 00:03:53;;;;;;;4.90;3.65;;;3.90;67.80;4.30;100102.00;;;;342443;28;87286;-89
2021/03/21 00:04:05;;;;;;;4.72;3.78;;;3.90;67.90;4.30;100104.00;;;;341484;28;91748;-88
2021/03/21 00:04:16;;;;;;;4.25;3.40;;;3.90;67.80;4.30;100104.00;;;;339988;28;87973;-89
2021/03/21 00:04:28;;;;;;;4.40;3.10;;;3.90;68.00;4.30;100110.00;;;;340139;28;91608;-89
2021/03/21 00:04:40;;;;;;;4.55;3.05;;;3.90;68.00;4.30;100109.00;;;;344152;28;86503;-89
2021/03/21 00:04:51;;;;;;;4.55;3.15;;;3.90;67.90;4.30;100109.00;;;;340214;28;90621;-89
2021/03/21 00:05:03;;;;;;;4.38;3.30;;;3.90;67.90;4.40;100110.00;;;;342713;28;88298;-88
2021/03/21 00:05:15;;;;;;;4.20;3.42;;;3.90;67.90;4.30;100095.00;;;;342800;28;91944;-89
2021/03/21 00:05:27;;;;;;;4.32;3.65;;;3.90;68.00;4.30;100098.00;;;;341433;28;86876;-89
2021/03/21 00:05:38;;;;;;;4.13;3.72;;;3.90;67.90;4.30;100099.00;;;;342664;28;90547;-89
2021/03/21 00:05:50;;;;;;;4.43;3.70;;;3.90;67.80;4.30;100103.00;;;;341416;28;87007;-89
2021/03/21 00:06:02;;;;;;;4.50;3.38;;;3.90;67.80;4.20;100103.00;;;;342807;28;91525;-90
2021/03/21 00:06:17;;;;;;;5.05;3.40;;;3.90;67.90;4.20;100106.00;;;;339307;28;87236;-89
2021/03/21 00:06:28;;;;;;;4.72;3.85;;;3.90;67.80;4.20;100097.00;;;;345552;28;90374;-90
2021/03/21 00:06:40;;;;;;;4.60;4.07;;;3.90;67.80;4.20;100101.00;;;;340087;28;88182;-88
2021/03/21 00:06:51;;;;;;;4.80;4.00;;;3.90;67.80;4.20;100106.00;;;;344199;28;90740;-89
2021/03/21 00:07:03;;;;;;;4.32;3.53;;;3.90;67.80;4.20;100108.00;;;;339972;28;87956;-89
2021/03/21 00:07:14;;;;;;;3.88;3.20;;;3.90;67.80;4.30;100109.00;;;;344345;28;91533;-90
2021/03/21 00:07:26;;;;;;;3.88;3.15;;;3.80;67.80;4.30;100102.00;;;;339881;28;88498;-90
2021/03/21 00:07:37;;;;;;;4.00;3.35;;;3.90;67.90;4.20;100100.00;;;;341322;28;91281;-89
2021/03/21 00:07:54;;;;;;;4.47;3.55;;;3.90;67.80;4.20;100110.00;;;;342648;28;86075;-89
2021/03/21 00:08:15;;;;;;;3.78;3.28;;;3.90;67.70;4.30;100105.00;;;;340041;28;92004;-89
2021/03/21 00:08:29;;;;;;;3.40;3.03;;;3.80;67.70;4.30;100107.00;;;;342657;28;88317;-91
2021/03/21 00:08:41;;;;;;;3.63;3.00;;;3.90;67.90;4.30;100110.00;;;;340099;28;91817;-89
2021/03/21 00:08:52;;;;;;;4.50;3.20;;;3.90;67.90;4.30;100102.00;;;;344029;28;88561;-89
2021/03/21 00:09:04;;;;;;;5.20;3.47;;;3.80;67.90;4.30;100104.00;;;;339794;28;91362;-89
2021/03/21 00:09:15;;;;;;;4.65;3.03;;;3.90;67.80;4.30;100107.00;;;;346217;28;88062;-89
2021/03/21 00:09:27;;;;;;;3.83;3.00;;;3.90;67.90;4.20;100107.00;;;;341481;28;90453;-89
2021/03/21 00:09:38;;;;;;;3.47;3.15;;;3.90;67.70;4.20;100099.00;;;;342754;28;88279;-89
2021/03/21 00:09:50;;;;;;;3.53;3.03;;;3.90;67.80;4.20;100101.00;;;;341583;28;90337;-89
2021/03/21 00:10:03;;;;;;;3.63;2.80;;;3.80;67.70;4.30;100107.00;;;;341342;28;87110;-88
2021/03/21 00:10:14;;;;;;;4.13;3.03;;;3.90;67.80;4.30;100097.00;;;;344122;28;90660;-88
2021/03/21 00:10:26;;;;;;;4.43;3.72;;;3.90;67.80;4.20;100096.00;;;;342523;28;87319;-89
2021/03/21 00:10:38;;;;;;;4.50;3.95;;;3.90;67.80;4.20;100102.00;;;;342804;28;90478;-89
2021/03/21 00:10:52;;;;;;;5.07;4.30;;;3.90;67.80;4.10;100106.00;;;;341509;28;87832;-89
2021/03/21 00:11:06;;;;;;;5.50;3.85;;;3.80;67.70;4.20;100105.00;;;;342827;28;90794;-89
2021/03/21 00:11:18;;;;;;;4.78;3.20;;;3.80;67.80;4.20;100108.00;;;;343913;28;87390;-89
2021/03/21 00:11:29;;;;;;;4.38;3.15;;;3.80;67.80;4.20;100101.00;;;;342919;28;90031;-90
2021/03/21 00:11:41;;;;;;;4.38;3.30;;;3.80;68.10;4.20;100103.00;;;;341393;28;86905;-88
2021/03/21 00:11:52;;;;;;;4.82;3.63;;;3.80;67.90;4.30;100097.00;;;;342747;28;91407;-89
2021/03/21 00:12:05;;;;;;;4.10;3.38;;;3.80;67.90;4.20;100104.00;;;;341318;28;88348;-89
2021/03/21 00:12:16;;;;;;;3.88;3.22;;;3.80;67.80;4.20;100108.00;;;;339386;28;91117;-89
2021/03/21 00:12:27;;;;;;;4.28;3.17;;;3.80;67.80;4.20;100101.00;;;;340214;28;87105;-89
2021/03/21 00:12:39;;;;;;;4.18;3.38;;;3.80;67.90;4.30;100105.00;;;;339983;28;92047;-89
2021/03/21 00:12:51;;;;;;;3.66;3.08;;;3.80;67.90;4.30;100104.00;;;;343852;28;87749;-89
2021/03/21 00:13:02;;;;;;;3.33;3.03;;;3.80;67.90;4.30;100105.00;;;;341365;28;89748;-89
2021/03/21 00:13:15;;;;;;;3.47;3.13;;;3.80;67.80;4.30;100105.00;;;;342692;28;87021;-89
2021/03/21 00:13:26;;;;;;;3.92;3.42;;;3.80;67.90;4.30;100098.00;;;;340192;28;92071;-89
2021/03/21 00:13:38;;;;;;;4.50;3.58;;;3.90;68.00;4.30;100105.00;;;;344071;28;88236;-89
2021/03/21 00:13:49;;;;;;;4.93;3.85;;;3.90;68.00;4.30;100103.00;;;;341543;28;89892;-89
2021/03/21 00:14:04;;;;;;;4.75;3.80;;;3.90;67.90;4.40;100102.00;;;;344102;28;88060;-89
2021/03/21 00:14:16;;;;;;;4.07;3.47;;;3.80;68.00;4.30;100103.00;;;;341514;28;91109;-89
2021/03/21 00:14:30;;;;;;;3.85;3.30;;;3.90;68.00;4.30;100102.00;;;;341154;28;87078;-89
2021/03/21 00:14:42;;;;;;;4.20;3.30;;;3.90;67.90;4.40;100102.00;;;;341351;28;91019;-89
2021/03/21 00:14:53;;;;;;;4.57;3.50;;;3.90;67.90;4.40;100092.00;;;;341479;28;86116;-89
2021/03/21 00:15:06;;;;;;;4.55;3.47;;;3.90;67.90;4.40;100103.00;;;;341476;28;91065;-89
2021/03/21 00:15:17;;;;;;;5.30;4.15;;;3.90;67.90;4.40;100103.00;;;;340656;28;88191;-89
2021/03/21 00:15:29;;;;;;;4.65;3.75;;;3.90;67.90;4.40;100099.00;;;;342634;28;90559;-89
2021/03/21 00:15:41;;;;;;;4.13;3.35;;;3.90;67.80;4.40;100102.00;;;;344086;28;87290;-89
2021/03/21 00:15:53;;;;;;;4.20;3.40;;;3.90;67.70;4.40;100090.00;;;;342629;28;91079;-89
2021/03/21 00:16:07;;;;;;;4.53;3.40;;;3.90;67.60;4.50;100101.00;;;;345530;28;86882;-89
2021/03/21 00:16:19;;;;;;;4.78;3.45;;;4.00;67.70;4.50;100106.00;;;;341985;28;89556;-89
2021/03/21 00:16:31;;;;;;;4.40;3.38;;;4.00;67.70;4.50;100098.00;;;;339739;28;87184;-89
2021/03/21 00:16:43;;;;;;;4.13;3.35;;;4.00;67.60;4.50;100102.00;;;;341551;28;89963;-89
2021/03/21 00:16:55;;;;;;;4.10;3.38;;;4.00;67.60;4.50;100105.00;;;;341415;28;88119;-89
2021/03/21 00:17:07;;;;;;;4.18;3.67;;;4.00;67.50;4.50;100102.00;;;;341258;28;91004;-89
2021/03/21 00:17:19;;;;;;;4.25;3.85;;;4.00;67.60;4.40;100095.00;;;;341329;28;87214;-89
2021/03/21 00:17:31;;;;;;;4.10;3.70;;;4.00;68.10;4.50;100093.00;;;;342904;28;91559;-89
2021/03/21 00:17:43;;;;;;;3.85;3.40;;;4.00;67.40;4.30;100109.00;;;;341188;28;87307;-89
2021/03/21 00:17:56;;;;;;;4.20;3.25;;;4.00;67.40;4.30;100103.00;;;;341448;28;90667;-89
2021/03/21 00:18:08;;;;;;;4.60;3.55;;;4.00;67.30;4.20;100110.00;;;;341462;28;86873;-89
2021/03/21 00:18:21;;;;;;;5.05;3.80;;;4.00;67.00;4.30;100106.00;;;;342099;28;94754;-89
2021/03/21 00:18:35;;;;;;;4.35;3.58;;;4.00;66.80;4.20;100101.00;;;;339833;28;87568;-90
2021/03/21 00:18:47;;;;;;;3.78;3.25;;;4.00;66.80;4.30;100091.00;;;;344279;28;90114;-89
2021/03/21 00:18:58;;;;;;;4.47;3.50;;;4.00;66.90;4.30;100101.00;;;;341385;28;88365;-89
2021/03/21 00:19:10;;;;;;;4.75;3.63;;;4.00;67.00;4.40;100101.00;;;;341436;28;90001;-89
2021/03/21 00:19:21;;;;;;;4.25;3.65;;;3.90;67.00;4.30;100105.00;;;;342712;28;87021;-89
2021/03/21 00:19:33;;;;;;;4.10;3.55;;;3.90;67.00;4.40;100098.00;;;;342855;28;92211;-89
2021/03/21 00:19:44;;;;;;;4.18;3.70;;;4.00;67.10;4.30;100103.00;;;;342713;28;87114;-89
2021/03/21 00:19:56;;;;;;;4.80;3.55;;;3.90;67.40;4.30;100106.00;;;;341464;28;91068;-89
2021/03/21 00:20:08;;;;;;;5.20;3.75;;;4.00;67.20;4.30;100101.00;;;;344033;28;88513;-89
2021/03/21 00:20:24;;;;;;;4.95;3.53;;;4.00;67.20;4.40;100097.00;;;;341515;28;90213;-89
2021/03/21 00:20:36;;;;;;;4.38;3.28;;;3.90;67.20;4.40;100106.00;;;;343570;28;87077;-91
2021/03/21 00:20:47;;;;;;;4.72;3.45;;;4.00;67.40;4.30;100089.00;;;;341372;28;91594;-89
2021/03/21 00:21:00;;;;;;;4.75;3.72;;;3.90;67.30;4.40;100091.00;;;;341396;28;87609;-91
2021/03/21 00:21:12;;;;;;;4.68;3.80;;;4.00;67.30;4.40;100099.00;;;;342535;28;90849;-89
2021/03/21 00:21:24;;;;;;;4.85;3.42;;;4.00;67.20;4.40;100099.00;;;;343539;28;88305;-89
2021/03/21 00:21:35;;;;;;;4.55;3.20;;;4.00;67.30;4.40;100097.00;;;;341558;28;90800;-89
2021/03/21 00:21:47;;;;;;;4.22;3.72;;;4.00;67.40;4.40;100103.00;;;;346634;28;87172;-89
2021/03/21 00:21:58;;;;;;;4.18;3.78;;;4.00;68.00;4.40;100089.00;;;;344129;28;92172;-88
2021/03/21 00:22:10;;;;;;;4.28;3.88;;;4.00;67.30;4.40;100091.00;;;;344084;28;87511;-89
2021/03/21 00:22:21;;;;;;;4.95;3.78;;;4.00;67.40;4.40;100097.00;;;;342740;28;91575;-89
2021/03/21 00:22:33;;;;;;;5.00;3.83;;;4.00;67.40;4.40;100099.00;;;;342563;28;87387;-89
2021/03/21 00:22:44;;;;;;;5.28;4.13;;;4.00;67.40;4.40;100093.00;;;;342853;28;90318;-90
2021/03/21 00:22:55;;;;;;;4.70;3.92;;;4.00;67.30;4.40;100099.00;;;;341369;28;88230;-89
2021/03/21 00:23:07;;;;;;;5.05;3.92;;;4.00;67.30;4.40;100092.00;;;;340086;28;91047;-89
2021/03/21 00:23:19;;;;;;;4.88;3.80;;;4.00;67.20;4.50;100099.00;;;;342657;28;87785;-89
2021/03/21 00:23:30;;;;;;;4.95;4.10;;;4.00;67.20;4.50;100097.00;;;;340186;28;91308;-89
2021/03/21 00:23:42;;;;;;;4.70;3.97;;;4.10;67.30;4.50;100099.00;;;;341397;28;88751;-88
2021/03/21 00:23:54;;;;;;;5.04;4.06;;;4.00;67.20;4.40;100093.00;;;;342902;28;88133;-89
2021/03/21 00:24:07;;;;;;;5.50;3.80;;;4.00;67.30;4.30;100097.00;;;;342690;28;88904;-89
2021/03/21 00:24:18;;;;;;;5.25;3.63;;;4.00;67.00;4.30;100102.00;;;;341788;28;90572;-89
2021/03/21 00:24:34;;;;;;;4.22;3.60;;;4.00;67.00;4.30;100100.00;;;;342538;28;89692;-89
2021/03/21 00:24:51;;;;;;;4.28;3.88;;;4.00;67.10;4.40;100098.00;;;;339871;28;90798;-89
2021/03/21 00:25:08;;;;;;;4.20;3.58;;;4.00;67.10;4.40;100103.00;;;;340106;28;86751;-89
2021/03/21 00:25:21;;;;;;;4.60;3.58;;;4.00;67.30;4.30;100105.00;;;;342244;28;90062;-89
2021/03/21 00:25:34;;;;;;;4.32;3.72;;;4.00;67.20;4.30;100100.00;;;;341370;28;87741;-89
2021/03/21 00:25:46;;;;;;;4.82;3.78;;;4.00;67.80;4.30;100097.00;;;;340160;28;91957;-89
2021/03/21 00:25:58;;;;;;;5.00;3.85;;;4.00;67.10;4.30;100101.00;;;;342335;28;87366;-89
2021/03/21 00:26:10;;;;;;;4.25;3.65;;;3.90;67.10;4.30;100094.00;;;;340230;28;91146;-88
2021/03/21 00:26:22;;;;;;;4.22;3.70;;;3.90;67.20;4.30;100087.00;;;;342468;28;87292;-90
2021/03/21 00:26:34;;;;;;;4.05;3.63;;;3.90;67.30;4.30;100096.00;;;;342764;28;90592;-89
2021/03/21 00:26:46;;;;;;;3.97;3.55;;;4.00;67.30;4.30;100104.00;;;;344071;28;87164;-90
2021/03/21 00:26:57;;;;;;;4.18;3.46;;;3.90;67.20;4.30;100101.00;;;;344368;28;89012;-88
2021/03/21 00:27:09;;;;;;;3.90;3.50;;;3.90;67.20;4.40;100101.00;;;;344082;28;86849;-88
2021/03/21 00:27:20;;;;;;;3.80;3.40;;;4.00;67.20;4.30;100104.00;;;;341002;28;88470;-89
2021/03/21 00:27:31;;;;;;;4.05;3.65;;;3.90;67.20;4.30;100096.00;;;;342638;28;88410;-89
2021/03/21 00:27:43;;;;;;;4.62;3.66;;;4.00;67.20;4.40;100100.00;;;;341635;28;91083;-89
2021/03/21 00:27:55;;;;;;;5.18;3.88;;;3.90;67.20;4.40;100106.00;;;;343820;28;87061;-89
2021/03/21 00:28:10;;;;;;;4.03;3.42;;;3.90;67.30;4.40;100097.00;;;;341543;28;91505;-89
2021/03/21 00:28:27;;;;;;;4.25;3.72;;;4.00;67.40;4.40;100100.00;;;;343841;28;88527;-90
2021/03/21 00:28:39;;;;;;;4.45;4.00;;;4.00;67.40;4.50;100104.00;;;;342793;28;90420;-89
2021/03/21 00:28:51;;;;;;;5.15;4.18;;;4.00;67.40;4.40;100109.00;;;;342566;28;87336;-89
2021/03/21 00:29:05;;;;;;;5.15;4.00;;;4.00;67.40;4.40;100099.00;;;;342808;28;89554;-91
2021/03/21 00:29:16;;;;;;;4.82;3.47;;;4.00;67.30;4.40;100103.00;;;;342559;28;87548;-89
2021/03/21 00:29:28;;;;;;;5.45;3.80;;;4.00;67.30;4.40;100099.00;;;;341460;28;90852;-88
2021/03/21 00:29:41;;;;;;;5.68;3.95;;;4.00;67.30;4.40;100094.00;;;;338793;28;87191;-89
2021/03/21 00:29:52;;;;;;;5.05;3.65;;;4.00;67.30;4.40;100093.00;;;;340092;28;89581;-89
2021/03/21 00:30:07;;;;;;;4.50;3.47;;;4.00;67.30;4.40;100099.00;;;;342731;28;87168;-89
2021/03/21 00:30:27;;;;;;;4.38;2.97;;;4.00;67.30;4.40;100101.00;;;;342277;28;91372;-89
2021/03/21 00:30:41;;;;;;;4.57;3.58;;;4.00;67.20;4.40;100095.00;;;;341343;28;88161;-89
2021/03/21 00:30:52;;;;;;;5.50;4.03;;;4.00;67.20;4.40;100093.00;;;;342543;28;91943;-89
2021/03/21 00:31:05;;;;;;;5.80;4.45;;;4.00;67.20;4.40;100097.00;;;;344237;28;87105;-89
2021/03/21 00:31:17;;;;;;;5.22;4.15;;;4.00;67.10;4.50;100100.00;;;;340806;28;88753;-89
2021/03/21 00:31:28;;;;;;;3.65;3.13;;;4.00;67.10;4.40;100103.00;;;;341547;28;87484;-89
2021/03/21 00:31:40;;;;;;;3.72;3.25;;;4.00;67.10;4.40;100099.00;;;;341811;28;89224;-89
2021/03/21 00:31:52;;;;;;;4.28;3.67;;;4.10;67.30;4.40;100099.00;;;;341303;28;88419;-89
2021/03/21 00:32:04;;;;;;;4.07;3.40;;;4.00;67.20;4.40;100093.00;;;;343098;28;91109;-89
2021/03/21 00:32:16;;;;;;;3.75;3.30;;;4.00;67.20;4.40;100092.00;;;;341485;28;88112;-89
2021/03/21 00:32:28;;;;;;;3.90;3.40;;;4.00;67.20;4.40;100097.00;;;;340074;28;90570;-88
2021/03/21 00:32:39;;;;;;;4.65;3.80;;;4.00;67.20;4.50;100105.00;;;;342971;28;88399;-89
2021/03/21 00:32:53;;;;;;;4.75;3.95;;;4.10;67.30;4.40;100101.00;;;;340174;28;91772;-88
2021/03/21 00:33:08;;;;;;;4.40;4.00;;;4.10;67.20;4.50;100111.00;;;;342612;28;87469;-89
2021/03/21 00:33:24;;;;;;;3.90;3.35;;;4.00;67.10;4.40;100091.00;;;;343620;28;89648;-88
2021/03/21 00:33:36;;;;;;;4.30;3.25;;;4.10;67.30;4.40;100104.00;;;;344173;28;87273;-88
2021/03/21 00:33:48;;;;;;;4.57;3.50;;;4.10;67.20;4.40;100088.00;;;;345673;28;90609;-88
2021/03/21 00:33:59;;;;;;;4.47;3.53;;;4.10;67.10;4.50;100103.00;;;;343893;28;87977;-88
2021/03/21 00:34:11;;;;;;;4.43;3.88;;;4.00;67.20;4.50;100091.00;;;;344379;28;89279;-88
2021/03/21 00:34:22;;;;;;;4.28;3.80;;;4.10;67.30;4.50;100096.00;;;;343989;28;87173;-88
2021/03/21 00:34:33;;;;;;;3.80;3.35;;;4.10;67.90;4.50;100101.00;;;;345510;28;90207;-89
2021/03/21 00:34:45;;;;;;;3.55;3.10;;;4.10;67.20;4.50;100099.00;;;;342701;28;88066;-88
2021/03/21 00:34:56;;;;;;;5.35;3.22;;;4.10;67.30;4.50;100103.00;;;;341625;28;90953;-88
2021/03/21 00:35:08;;;;;;;6.03;3.33;;;4.10;67.40;4.50;100103.00;;;;341267;28;88249;-88
2021/03/21 00:35:20;;;;;;;5.63;3.65;;;4.10;67.20;4.50;100093.00;;;;341588;28;91307;-88
2021/03/21 00:35:31;;;;;;;4.22;3.53;;;4.10;67.00;4.50;100100.00;;;;342762;28;87454;-89
2021/03/21 00:35:43;;;;;;;4.45;3.72;;;4.10;67.00;4.40;100106.00;;;;344076;28;89912;-88
2021/03/21 00:35:54;;;;;;;4.55;3.95;;;4.10;67.00;4.40;100100.00;;;;339948;28;88188;-89
2021/03/21 00:36:09;;;;;;;4.43;4.03;;;4.10;67.20;4.50;100103.00;;;;342783;28;90977;-89
2021/03/21 00:36:20;;;;;;;4.38;3.75;;;4.10;67.30;4.40;100094.00;;;;343503;28;86225;-88
2021/03/21 00:36:31;;;;;;;5.70;3.70;;;4.10;67.40;4.50;100097.00;;;;341280;28;91515;-89
2021/03/21 00:36:43;;;;;;;5.72;4.00;;;4.10;67.40;4.50;100095.00;;;;342630;28;86980;-88
2021/03/21 00:36:54;;;;;;;4.68;3.88;;;4.10;67.20;4.50;100101.00;;;;341538;28;90166;-89
2021/03/21 00:37:06;;;;;;;4.20;3.72;;;4.10;67.30;4.50;100100.00;;;;341051;28;88277;-89
2021/03/21 00:37:17;;;;;;;4.32;3.38;;;4.10;67.20;4.50;100104.00;;;;341353;28;91771;-88
2021/03/21 00:37:28;;;;;;;5.40;3.47;;;4.10;67.20;4.50;100095.00;;;;338719;28;88391;-89
2021/03/21 00:37:41;;;;;;;6.05;3.78;;;4.10;67.20;4.50;100090.00;;;;341485;28;91253;-88
2021/03/21 00:37:55;;;;;;;4.60;3.20;;;4.10;67.30;4.50;100093.00;;;;342379;28;87026;-89
2021/03/21 00:38:09;;;;;;;3.63;3.05;;;4.10;67.40;4.50;100100.00;;;;342780;28;91925;-89
2021/03/21 00:38:32;;;;;;;3.72;3.38;;;4.10;67.40;4.50;100100.00;;;;341376;28;89075;-89
2021/03/21 00:38:47;;;;;;;3.38;3.08;;;4.10;67.20;4.60;100100.00;;;;340088;28;91847;-88
2021/03/21 00:38:59;;;;;;;4.00;3.60;;;4.10;67.30;4.40;100102.00;;;;343989;28;88755;-89
2021/03/21 00:39:10;;;;;;;3.80;3.28;;;4.10;67.50;4.50;100089.00;;;;341267;28;91537;-89
2021/03/21 00:39:22;;;;;;;4.03;3.10;;;4.10;67.40;4.50;100095.00;;;;339985;28;87195;-88
2021/03/21 00:39:33;;;;;;;3.80;3.17;;;4.10;67.10;4.40;100089.00;;;;342855;28;91105;-88
2021/03/21 00:39:44;;;;;;;3.75;3.30;;;4.10;67.10;4.40;100087.00;;;;341182;28;86216;-89
2021/03/21 00:39:56;;;;;;;4.65;3.33;;;4.10;67.20;4.30;100100.00;;;;344179;28;91078;-88
2021/03/21 00:40:19;;;;;;;5.95;3.60;;;4.10;67.20;4.20;100102.00;;;;342588;28;87425;-89
2021/03/21 00:40:30;;;;;;;5.22;4.20;;;4.00;67.10;4.20;100104.00;;;;341424;28;91346;-88
2021/03/21 00:40:43;;;;;;;5.05;4.18;;;4.00;67.10;4.30;100105.00;;;;341549;28;88512;-88
2021/03/21 00:40:54;;;;;;;4.57;4.00;;;4.00;67.20;4.20;100097.00;;;;343265;28;91315;-88
2021/03/21 00:41:07;;;;;;;5.20;4.05;;;4.00;67.50;4.30;100089.00;;;;341654;28;88590;-88
2021/03/21 00:41:22;;;;;;;5.10;3.70;;;4.00;67.40;4.40;100086.00;;;;341855;28;91450;-88
2021/03/21 00:41:33;;;;;;;4.45;3.40;;;4.00;67.50;4.30;100093.00;;;;341539;28;87212;-88
2021/03/21 00:41:45;;;;;;;3.78;3.35;;;4.00;67.30;4.30;100084.00;;;;343151;28;90461;-88
2021/03/21 00:41:56;;;;;;;4.55;3.65;;;4.00;67.10;4.40;100087.00;;;;345775;28;87247;-88
2021/03/21 00:42:08;;;;;;;5.30;3.95;;;4.00;67.00;4.40;100098.00;;;;341784;28;89884;-88
2021/03/21 00:42:20;;;;;;;5.72;4.43;;;4.00;67.10;4.40;100097.00;;;;341370;28;87927;-89
2021/03/21 00:42:31;;;;;;;5.10;3.92;;;4.00;67.20;4.40;100100.00;;;;339072;28;90789;-88
2021/03/21 00:42:42;;;;;;;4.47;3.50;;;4.00;67.20;4.50;100095.00;;;;344198;28;87551;-88
2021/03/21 00:42:55;;;;;;;4.35;3.53;;;4.00;67.10;4.40;100098.00;;;;342571;28;90617;-88
2021/03/21 00:43:06;;;;;;;4.57;3.97;;;4.00;67.00;4.40;100100.00;;;;343116;28;86035;-89
2021/03/21 00:43:18;;;;;;;4.60;3.83;;;4.00;66.90;4.40;100101.00;;;;343169;28;91452;-88
2021/03/21 00:43:30;;;;;;;4.50;3.83;;;4.00;66.90;4.40;100086.00;;;;341503;28;87124;-89
2021/03/21 00:43:42;;;;;;;4.70;3.50;;;4.00;66.90;4.40;100096.00;;;;344367;28;90654;-89
2021/03/21 00:43:55;;;;;;;4.28;3.42;;;4.00;66.90;4.40;100095.00;;;;341737;28;86976;-89
2021/03/21 00:44:07;;;;;;;3.72;3.17;;;4.00;66.80;4.40;100099.00;;;;343295;28;90626;-88
2021/03/21 00:44:18;;;;;;;4.15;3.33;;;4.00;67.00;4.40;100088.00;;;;342942;28;88073;-88
2021/03/21 00:44:30;;;;;;;4.25;3.22;;;4.00;67.10;4.40;100087.00;;;;341716;28;91573;-90
2021/03/21 00:44:41;;;;;;;4.28;3.33;;;4.00;67.10;4.40;100081.00;;;;342860;28;87050;-88
2021/03/21 00:44:52;;;;;;;5.38;3.65;;;4.00;67.10;4.40;100097.00;;;;340487;28;90418;-88
2021/03/21 00:45:05;;;;;;;5.15;3.53;;;4.00;67.20;4.40;100093.00;;;;340337;28;88371;-89
2021/03/21 00:45:18;;;;;;;4.70;3.33;;;4.00;67.30;4.30;100093.00;;;;341171;28;92312;-89
2021/03/21 00:45:30;;;;;;;4.28;3.45;;;4.00;67.20;4.40;100086.00;;;;340838;28;87182;-88
2021/03/21 00:45:41;;;;;;;5.13;3.33;;;4.00;67.10;4.40;100093.00;;;;342957;28;91369;-88
2021/03/21 00:45:53;;;;;;;5.32;3.53;;;4.00;67.20;4.50;100094.00;;;;341477;28;86927;-88
2021/03/21 00:46:05;;;;;;;4.57;3.28;;;4.00;67.20;4.50;100100.00;;;;344351;28;90232;-88
2021/03/21 00:46:16;;;;;;;3.70;3.35;;;4.10;67.20;4.50;100092.00;;;;341372;28;87984;-88
2021/03/21 00:46:28;;;;;;;3.70;3.28;;;4.00;67.10;4.40;100098.00;;;;344288;28;91340;-89
2021/03/21 00:46:40;;;;;;;3.65;3.03;;;4.00;67.00;4.40;100094.00;;;;339811;28;88309;-89
2021/03/21 00:46:52;;;;;;;3.63;2.88;;;4.00;67.00;4.50;100089.00;;;;341601;28;91208;-89
2021/03/21 00:47:04;;;;;;;4.28;3.28;;;4.00;67.00;4.50;100106.00;;;;342666;28;88371;-89
2021/03/21 00:47:15;;;;;;;4.75;3.80;;;4.10;67.10;4.50;100085.00;;;;340080;28;91988;-88
2021/03/21 00:47:27;;;;;;;4.18;3.63;;;4.00;66.70;4.40;100093.00;;;;341336;28;87490;-89
2021/03/21 00:47:39;;;;;;;4.15;3.53;;;4.00;66.50;4.40;100094.00;;;;341512;28;91507;-88
2021/03/21 00:47:50;;;;;;;4.35;3.95;;;4.00;66.40;4.40;100091.00;;;;339953;28;87842;-88
2021/03/21 00:48:03;;;;;;;4.38;3.85;;;4.00;66.50;4.40;100091.00;;;;341531;28;90805;-89
2021/03/21 00:48:27;;;;;;;4.47;3.67;;;4.00;66.70;4.40;100090.00;;;;339661;28;86302;-89
2021/03/21 00:48:46;;;;;;;5.10;4.03;;;4.00;67.00;4.40;100093.00;;;;341367;28;91845;-89
2021/03/21 00:48:57;;;;;;;4.70;3.67;;;4.00;66.90;4.50;100096.00;;;;341271;28;88882;-88
2021/03/21 00:49:09;;;;;;;3.78;3.10;;;4.00;66.80;4.50;100098.00;;;;342768;28;90651;-89
2021/03/21 00:49:20;;;;;;;4.80;3.58;;;4.10;66.80;4.50;100095.00;;;;340874;28;88406;-88
2021/03/21 00:49:32;;;;;;;5.15;3.92;;;4.10;66.80;4.50;100086.00;;;;340092;28;91822;-89
2021/03/21 00:49:43;;;;;;;4.45;3.85;;;4.10;66.80;4.40;100092.00;;;;339766;28;87130;-89
2021/03/21 00:49:54;;;;;;;4.22;3.80;;;4.10;66.70;4.40;100093.00;;;;340109;28;91715;-88
2021/03/21 00:50:09;;;;;;;4.05;3.65;;;4.10;66.70;4.30;100098.00;;;;342548;28;87404;-89
2021/03/21 00:50:32;;;;;;;3.78;3.35;;;4.00;66.60;4.30;100093.00;;;;341414;28;90871;-88
2021/03/21 00:50:43;;;;;;;4.53;3.45;;;4.00;66.90;4.30;100088.00;;;;342609;28;88674;-89
2021/03/21 00:50:55;;;;;;;4.95;3.67;;;4.00;66.80;4.30;100093.00;;;;341491;28;90467;-88
2021/03/21 00:51:07;;;;;;;5.35;3.78;;;4.00;66.80;4.40;100091.00;;;;341431;28;87106;-89
2021/03/21 00:51:19;;;;;;;5.30;4.13;;;4.00;66.80;4.40;100092.00;;;;342406;28;91616;-88
2021/03/21 00:51:31;;;;;;;4.57;3.80;;;4.00;66.90;4.40;100101.00;;;;342068;28;87112;-89
2021/03/21 00:51:42;;;;;;;4.18;3.72;;;4.00;66.90;4.40;100086.00;;;;341405;28;91780;-88
2021/03/21 00:51:54;;;;;;;3.92;3.53;;;4.00;66.90;4.40;100088.00;;;;341280;28;88128;-88
2021/03/21 00:52:05;;;;;;;4.28;3.17;;;4.00;66.90;4.40;100095.00;;;;344059;28;90690;-88
2021/03/21 00:52:17;;;;;;;4.75;3.05;;;4.00;67.00;4.30;100097.00;;;;341344;28;87544;-88
2021/03/21 00:52:28;;;;;;;4.25;3.03;;;4.00;66.80;4.30;100092.00;;;;341491;28;90219;-88
2021/03/21 00:52:40;;;;;;;4.53;3.25;;;4.00;66.80;4.30;100090.00;;;;342669;28;87569;-89
2021/03/21 00:52:52;;;;;;;5.05;3.40;;;4.00;67.10;4.40;100084.00;;;;340110;28;91711;-89
2021/03/21 00:53:03;;;;;;;5.47;3.33;;;4.00;67.00;4.40;100089.00;;;;344082;28;86845;-89
2021/03/21 00:53:15;;;;;;;4.78;3.45;;;4.00;67.00;4.40;100088.00;;;;342439;28;90638;-89
2021/03/21 00:53:27;;;;;;;3.83;3.28;;;4.00;66.90;4.40;100097.00;;;;341245;28;87110;-88
2021/03/21 00:53:38;;;;;;;4.88;3.50;;;4.00;66.70;4.30;100092.00;;;;341301;28;90724;-88
2021/03/21 00:53:50;;;;;;;5.00;3.42;;;4.00;66.80;4.30;100088.00;;;;341191;28;88215;-88
2021/03/21 00:54:01;;;;;;;4.30;3.40;;;4.00;67.00;4.30;100092.00;;;;341413;28;89634;-89
2021/03/21 00:54:13;;;;;;;4.43;3.25;;;4.00;66.90;4.20;100096.00;;;;339543;28;88249;-89
2021/03/21 00:54:24;;;;;;;4.13;3.20;;;4.00;66.90;4.30;100087.00;;;;339958;28;90076;-88
2021/03/21 00:54:36;;;;;;;4.00;3.22;;;4.00;67.00;4.40;100089.00;;;;343893;28;87474;-89
2021/03/21 00:54:47;;;;;;;4.45;3.22;;;4.00;67.00;4.40;100089.00;;;;341179;28;89562;-89
2021/03/21 00:55:13;;;;;;;5.55;3.42;;;4.00;67.00;4.40;100080.00;;;;339944;28;87303;-88
2021/03/21 00:55:25;;;;;;;4.15;3.13;;;4.00;67.10;4.40;100085.00;;;;341526;28;91766;-89
2021/03/21 00:55:36;;;;;;;3.60;3.10;;;4.00;67.10;4.40;100087.00;;;;342650;28;88228;-89
2021/03/21 00:55:48;;;;;;;3.17;2.88;;;4.00;67.00;4.40;100091.00;;;;344149;28;91817;-89
2021/03/21 00:55:59;;;;;;;3.47;3.10;;;4.00;67.10;4.40;100082.00;;;;339720;28;86328;-89
2021/03/21 00:56:37;;;;;;;4.18;3.60;;;4.00;66.80;4.40;100096.00;;;;342894;28;91687;-88
2021/03/21 00:56:48;;;;;;;4.43;3.70;;;4.00;66.80;4.30;100084.00;;;;339988;28;88435;-89
2021/03/21 00:57:00;;;;;;;4.50;3.80;;;4.00;66.80;4.40;100092.00;;;;341533;28;87360;-89